Main page
METAR-TAF:

METAR-TAF

Airports :

Silvio Pettirossi International Airport

Asunción, Paraguay

latitude: 25-16S, longitude: 057-38W, elevation: 101 m

Current weather observation

The report was made 53 minutes ago, at 05:00 UTC
Wind 8 kt from the Southwest
Temperature 20°C
Humidity 88%
Pressure 1015 hPa
Visibility 10 km or more
no clouds below 1500 m and no cumulonimbus

METAR: SGAS 170500Z 22008KT CAVOK 20/18 Q1015

Time: 01:53 (05:53 UTC)

Forecast

The report was made 2 hours and 33 minutes ago, at 03:20 UTC
Forecast valid from 17 at 06 UTC to 18 at 06 UTC
Wind 8 kt from the South/Southwest
Visibility 10 km or more
no clouds below 1500 m and no cumulonimbus
Becoming
from 17 at 13 UTC to 17 at 15 UTC
Visibility 10 km or more
Broken clouds at a height of 2700 ft
Becoming
from 17 at 17 UTC to 17 at 20 UTC
Visibility 10 km or more
Scattered clouds at a height of 3300 ft

TAF: SGAS 170320Z 1706/1806 21008KT CAVOK TX33/1719Z TN22/1709Z BECMG 1713/1715 9999 BKN027 BECMG 1717/1720 9999 SCT033

Weather observations and forecasts of more than 4000 airports (METAR and TAF reports).

The available stations are represented by yellow and red dots on the map.

Hover mouse over dot to see the name of the station.

Then click to see weather observations and forecasts.

To change the map : click on the green buttons with a black cross to zoom in, on the green button with a dash to zoom out, or on the green arrows for adjacent maps.


METAR-TAF: